createdAt,value
2023-04-03T00:02:30.363Z,88.04
2023-04-03T00:05:37.407Z,79.13
2023-04-03T00:08:44.668Z,80.60
2023-04-03T00:11:51.440Z,75.44
2023-04-03T00:15:00.224Z,70.80
2023-04-03T00:18:08.979Z,72.87
2023-04-03T00:21:17.716Z,74.00
2023-04-03T00:24:24.810Z,77.43
2023-04-03T00:27:30.899Z,73.79
2023-04-03T00:30:40.852Z,79.71
2023-04-03T00:33:47.222Z,75.49
2023-04-03T00:36:54.252Z,80.94
2023-04-03T00:40:00.801Z,82.32
2023-04-03T00:43:19.276Z,74.47
2023-04-03T00:46:27.878Z,73.66
2023-04-03T00:49:34.855Z,72.97
2023-04-03T00:52:46.488Z,79.01
2023-04-03T00:55:58.157Z,77.38
2023-04-03T00:59:12.457Z,80.23
2023-04-03T01:02:22.987Z,78.56
2023-04-03T01:05:30.093Z,77.07
2023-04-03T01:08:39.812Z,78.12
2023-04-03T01:11:45.793Z,79.95
2023-04-03T01:14:56.984Z,76.63
2023-04-03T01:18:06.056Z,79.77
2023-04-03T01:21:57.916Z,89.47
2023-04-03T01:25:04.006Z,100.72
2023-04-03T01:28:22.146Z,99.91
2023-04-03T01:31:37.008Z,96.04
2023-04-03T01:34:46.640Z,98.60
2023-04-03T01:37:52.895Z,103.01
2023-04-03T01:41:00.925Z,103.62
2023-04-03T01:44:08.053Z,104.03
2023-04-03T01:47:15.007Z,103.45
2023-04-03T01:50:23.679Z,103.21
2023-04-03T01:53:30.786Z,103.41
2023-04-03T01:56:36.984Z,103.06
2023-04-03T01:59:43.866Z,105.66
2023-04-03T02:02:50.059Z,99.02
2023-04-03T02:05:59.628Z,95.95
2023-04-03T02:09:05.974Z,96.32
2023-04-03T02:12:12.830Z,96.47
2023-04-03T02:15:19.267Z,95.57
2023-04-03T02:18:26.260Z,88.68
2023-04-03T02:21:34.940Z,84.55
2023-04-03T02:24:42.633Z,84.95
2023-04-03T02:27:48.652Z,80.30
2023-04-03T02:30:55.668Z,74.61
2023-04-03T02:34:01.793Z,77.98
2023-04-03T02:37:11.614Z,84.73
2023-04-03T02:40:17.948Z,82.32
2023-04-03T02:43:24.893Z,86.72
2023-04-03T02:46:31.006Z,85.34
2023-04-03T02:49:38.042Z,86.85
2023-04-03T02:52:46.627Z,83.47
2023-04-03T02:55:53.650Z,86.97
2023-04-03T02:59:00.005Z,78.63
2023-04-03T03:02:07.480Z,81.68
2023-04-03T03:05:13.791Z,84.18
2023-04-03T03:08:23.731Z,87.30
2023-04-03T03:11:29.811Z,92.32
2023-04-03T03:14:36.755Z,89.84
2023-04-03T03:17:43.289Z,86.08
2023-04-03T03:20:50.248Z,86.98
2023-04-03T03:23:58.940Z,84.66
2023-04-03T03:27:07.404Z,83.21
2023-04-03T03:30:14.641Z,81.75
2023-04-03T03:33:21.789Z,81.54
2023-04-03T03:36:27.844Z,85.46
2023-04-03T03:39:37.417Z,93.66
2023-04-03T03:42:44.222Z,84.34
2023-04-03T03:45:55.896Z,84.37
2023-04-03T03:49:03.984Z,82.40
2023-04-03T03:52:11.822Z,74.35
2023-04-03T03:55:21.088Z,71.23
2023-04-03T03:58:32.499Z,75.14
2023-04-03T04:01:38.931Z,70.06
2023-04-03T04:04:46.407Z,64.51
2023-04-03T04:07:52.901Z,63.28
2023-04-03T04:11:02.709Z,67.19
2023-04-03T04:14:11.711Z,65.57
2023-04-03T04:17:22.682Z,64.39
2023-04-03T04:20:29.705Z,61.50
2023-04-03T04:23:37.465Z,64.33
2023-04-03T04:26:46.338Z,60.51
2023-04-03T04:29:56.316Z,61.19
2023-04-03T04:33:03.207Z,55.37
2023-04-03T04:36:11.779Z,57.25
2023-04-03T04:39:22.560Z,64.40
2023-04-03T04:42:32.338Z,57.67
2023-04-03T04:45:38.791Z,52.57
2023-04-03T04:48:46.536Z,55.45
2023-04-03T04:51:53.605Z,50.25
2023-04-03T04:55:07.932Z,53.99
2023-04-03T04:58:16.585Z,53.53
2023-04-03T05:01:29.142Z,52.75
2023-04-03T05:04:45.704Z,56.27
2023-04-03T05:07:58.897Z,58.53
2023-04-03T05:11:05.285Z,52.43
2023-04-03T05:14:14.839Z,51.15
2023-04-03T05:17:21.612Z,54.42
2023-04-03T05:20:32.964Z,54.98
2023-04-03T05:23:39.653Z,57.84
2023-04-03T05:26:47.912Z,53.27
2023-04-03T05:29:57.944Z,56.02
2023-04-03T05:33:05.879Z,55.72
2023-04-03T05:36:19.275Z,58.94
2023-04-03T05:39:30.194Z,57.13
2023-04-03T05:42:37.073Z,59.78
2023-04-03T05:45:47.794Z,62.58
2023-04-03T05:48:54.886Z,66.12
2023-04-03T05:52:05.847Z,63.21
2023-04-03T05:55:13.029Z,67.53
2023-04-03T05:58:20.362Z,64.26
2023-04-03T06:01:30.852Z,66.85
2023-04-03T06:04:38.050Z,76.70
2023-04-03T06:07:45.900Z,75.16
2023-04-03T06:10:52.859Z,76.26
2023-04-03T06:13:58.890Z,66.41
2023-04-03T06:17:09.804Z,66.50
2023-04-03T06:20:19.004Z,67.41
2023-04-03T06:23:25.958Z,77.35
2023-04-03T06:26:32.580Z,70.91
2023-04-03T06:29:41.864Z,76.14
2023-04-03T06:32:50.614Z,72.62
2023-04-03T06:36:02.772Z,68.52
2023-04-03T06:39:11.268Z,91.22
2023-04-03T06:42:18.441Z,105.98
2023-04-03T06:45:34.718Z,68.69
2023-04-03T06:48:44.330Z,70.39
2023-04-03T06:51:50.586Z,132.89
2023-04-03T06:55:00.781Z,96.23
2023-04-03T06:58:09.565Z,86.48
2023-04-03T07:01:20.613Z,68.19
2023-04-03T07:04:29.484Z,62.40
2023-04-03T07:07:36.886Z,65.64
2023-04-03T07:10:43.332Z,64.02
2023-04-03T07:13:51.703Z,61.78
2023-04-03T07:16:57.734Z,67.21
2023-04-03T07:20:13.308Z,72.66
2023-04-03T07:23:19.935Z,77.07
2023-04-03T07:26:31.523Z,71.88
2023-04-03T07:29:37.486Z,72.59
2023-04-03T07:32:47.241Z,67.54
2023-04-03T07:35:56.490Z,66.61
2023-04-03T07:39:09.862Z,64.31
2023-04-03T07:42:19.837Z,68.22
2023-04-03T07:45:27.087Z,70.70
2023-04-03T07:48:33.654Z,67.76
2023-04-03T07:51:43.244Z,67.07
2023-04-03T07:54:49.388Z,69.68
2023-04-03T07:57:59.719Z,62.15
2023-04-03T08:01:07.464Z,65.67
2023-04-03T08:04:15.152Z,55.84
2023-04-03T08:07:23.945Z,56.54
2023-04-03T08:10:30.843Z,48.95
2023-04-03T08:13:38.593Z,53.64
2023-04-03T08:16:45.983Z,50.84
2023-04-03T08:19:52.262Z,50.87
2023-04-03T08:23:01.917Z,42.90
2023-04-03T08:26:13.623Z,42.94
2023-04-03T08:29:21.989Z,38.03
2023-04-03T08:32:30.741Z,35.95
2023-04-03T08:35:42.086Z,35.56
2023-04-03T08:38:52.645Z,33.80
2023-04-03T08:42:08.516Z,32.29
2023-04-03T08:45:23.994Z,24.23
2023-04-03T08:48:37.367Z,28.18
2023-04-03T08:51:59.858Z,25.35
2023-04-03T08:55:30.117Z,23.73
2023-04-03T08:58:52.928Z,25.71
2023-04-03T09:02:06.775Z,28.64
2023-04-03T09:05:19.528Z,25.12
2023-04-03T09:08:32.769Z,28.44
2023-04-03T09:11:59.874Z,25.44
2023-04-03T09:15:31.405Z,23.64
2023-04-03T09:18:56.696Z,28.00
2023-04-03T09:22:20.626Z,23.50
2023-04-03T09:25:32.236Z,21.79
2023-04-03T09:28:50.419Z,21.62
2023-04-03T09:32:04.404Z,21.89
2023-04-03T09:35:32.949Z,20.99
2023-04-03T09:38:50.616Z,25.58
2023-04-03T09:42:05.427Z,26.46
2023-04-03T09:45:29.739Z,28.37
2023-04-03T09:48:36.810Z,26.98
2023-04-03T09:51:46.512Z,26.36
2023-04-03T09:54:53.705Z,22.94
2023-04-03T09:58:04.904Z,22.88
2023-04-03T10:01:32.503Z,24.33
2023-04-03T10:04:47.204Z,22.62
2023-04-03T10:08:03.550Z,20.34
2023-04-03T10:11:18.643Z,21.64
2023-04-03T10:14:25.540Z,26.52
2023-04-03T10:17:56.616Z,29.36
2023-04-03T10:21:27.102Z,27.87
2023-04-03T10:24:49.691Z,30.24
2023-04-03T10:28:14.863Z,30.11
2023-04-03T10:31:43.640Z,32.82
2023-04-03T10:35:14.784Z,29.05
2023-04-03T10:38:34.941Z,31.66
2023-04-03T10:42:17.255Z,31.32
2023-04-03T10:45:36.578Z,24.43
2023-04-03T10:49:11.078Z,26.61
2023-04-03T10:52:30.895Z,27.02
2023-04-03T10:55:51.853Z,29.36
2023-04-03T10:59:14.768Z,26.95
2023-04-03T11:02:31.926Z,34.51
2023-04-03T11:05:49.359Z,30.81
2023-04-03T11:09:08.113Z,31.90
2023-04-03T11:12:25.293Z,48.65
2023-04-03T11:15:37.362Z,36.79
2023-04-03T11:18:56.534Z,59.59
2023-04-03T11:22:16.691Z,47.70
2023-04-03T11:25:30.476Z,37.11
2023-04-03T11:28:40.564Z,38.22
2023-04-03T11:32:20.752Z,39.22
2023-04-03T11:35:38.136Z,29.75
2023-04-03T11:38:54.061Z,46.47
2023-04-03T11:42:22.313Z,27.18
2023-04-03T11:45:42.195Z,24.98
2023-04-03T11:48:57.816Z,28.98
2023-04-03T11:52:03.971Z,27.12
2023-04-03T11:55:46.190Z,31.31
2023-04-03T11:59:30.441Z,27.46
2023-04-03T12:02:53.969Z,25.98
2023-04-03T12:06:37.140Z,27.22
2023-04-03T12:10:32.281Z,26.69
2023-04-03T12:13:40.618Z,22.07
2023-04-03T12:16:53.229Z,20.98
2023-04-03T12:19:59.613Z,21.12
2023-04-03T12:23:27.600Z,24.76
2023-04-03T12:26:49.102Z,27.77
2023-04-03T12:30:08.432Z,25.45
2023-04-03T12:33:38.090Z,29.21
2023-04-03T12:37:08.034Z,34.29
2023-04-03T12:40:32.925Z,28.11
2023-04-03T12:44:09.701Z,26.54
2023-04-03T12:47:34.327Z,29.31
2023-04-03T12:50:44.695Z,29.97
2023-04-03T12:53:53.190Z,32.32
2023-04-03T12:57:19.607Z,30.47
2023-04-03T13:00:41.063Z,32.14
2023-04-03T13:03:52.815Z,30.56
2023-04-03T13:07:02.465Z,31.32
2023-04-03T13:10:21.168Z,41.42
2023-04-03T13:13:27.756Z,32.82
2023-04-03T13:16:42.587Z,32.28
2023-04-03T13:19:50.225Z,31.49
2023-04-03T13:23:05.737Z,34.49
2023-04-03T13:26:14.172Z,37.40
2023-04-03T13:29:32.213Z,35.04
2023-04-03T13:32:41.756Z,38.66
2023-04-03T13:35:49.638Z,34.78
2023-04-03T13:39:11.382Z,33.76
2023-04-03T13:42:31.048Z,32.20
2023-04-03T13:45:38.900Z,32.26
2023-04-03T13:48:53.063Z,29.97
2023-04-03T13:52:32.371Z,32.39
2023-04-03T13:56:05.075Z,31.24
2023-04-03T13:59:32.772Z,26.90
2023-04-03T14:02:43.583Z,30.09
2023-04-03T14:05:52.383Z,30.55
2023-04-03T14:08:59.375Z,29.00
2023-04-03T14:12:30.636Z,27.98
2023-04-03T14:16:00.344Z,28.42
2023-04-03T14:19:22.163Z,30.00
2023-04-03T14:22:36.733Z,33.04
2023-04-03T14:25:45.300Z,33.47
2023-04-03T14:28:57.014Z,27.62
2023-04-03T14:32:13.760Z,31.54
2023-04-03T14:35:25.594Z,38.48
2023-04-03T14:38:36.565Z,30.30
2023-04-03T14:41:43.552Z,35.77
2023-04-03T14:44:50.270Z,40.94
2023-04-03T14:48:01.153Z,31.55
2023-04-03T14:51:17.175Z,31.90
2023-04-03T14:54:32.711Z,38.59
2023-04-03T14:57:41.040Z,36.82
2023-04-03T15:00:59.922Z,42.48
2023-04-03T15:04:26.309Z,33.87
2023-04-03T15:07:40.112Z,38.28
2023-04-03T15:10:49.486Z,37.56
2023-04-03T15:13:56.401Z,36.47
2023-04-03T15:17:05.135Z,38.98
2023-04-03T15:20:21.012Z,57.30
2023-04-03T15:23:29.553Z,51.02
2023-04-03T15:26:39.433Z,39.02
2023-04-03T15:29:48.738Z,35.13
2023-04-03T15:32:57.393Z,36.38
2023-04-03T15:36:11.809Z,36.85
2023-04-03T15:39:24.631Z,40.37
2023-04-03T15:42:33.330Z,41.71
2023-04-03T15:45:42.261Z,34.36
2023-04-03T15:48:49.013Z,40.66
2023-04-03T15:51:55.907Z,39.61
2023-04-03T15:55:02.763Z,36.94
2023-04-03T15:58:12.732Z,37.50
2023-04-03T16:01:19.606Z,35.71
2023-04-03T16:04:26.833Z,36.58
2023-04-03T16:07:33.024Z,33.59
2023-04-03T16:10:41.742Z,36.86
2023-04-03T16:13:50.409Z,39.67
2023-04-03T16:16:57.456Z,41.96
2023-04-03T16:20:04.878Z,36.58
2023-04-03T16:23:11.909Z,38.41
2023-04-03T16:26:18.640Z,37.42
2023-04-03T16:29:28.315Z,40.52
2023-04-03T16:32:36.720Z,42.75
2023-04-03T16:35:45.011Z,36.16
2023-04-03T16:38:51.146Z,35.31
2023-04-03T16:41:58.177Z,56.09
2023-04-03T16:45:07.263Z,68.56
2023-04-03T16:48:15.411Z,53.75
2023-04-03T16:51:21.716Z,56.96
2023-04-03T16:54:28.590Z,61.92
2023-04-03T16:57:37.859Z,60.89
2023-04-03T17:00:48.586Z,44.37
2023-04-03T17:03:54.784Z,46.94
2023-04-03T17:07:06.747Z,49.48
2023-04-03T17:10:15.390Z,48.09
2023-04-03T17:13:22.365Z,48.69
2023-04-03T17:16:33.187Z,47.42
2023-04-03T17:19:43.312Z,47.17
2023-04-03T17:22:51.396Z,47.29
2023-04-03T17:25:58.531Z,48.70
2023-04-03T17:29:04.594Z,46.41
2023-04-03T17:32:14.347Z,42.57
2023-04-03T17:35:20.738Z,45.11
2023-04-03T17:38:30.374Z,44.51
2023-04-03T17:41:36.564Z,50.12
2023-04-03T17:44:43.556Z,49.94
2023-04-03T17:47:56.367Z,54.84
2023-04-03T17:51:08.815Z,58.87
2023-04-03T17:54:15.441Z,58.71
2023-04-03T17:57:22.381Z,54.68
2023-04-03T18:00:28.571Z,57.08
2023-04-03T18:03:38.218Z,55.88
2023-04-03T18:06:49.985Z,59.99
2023-04-03T18:10:00.858Z,62.31
2023-04-03T18:13:10.121Z,62.12
2023-04-03T18:16:18.809Z,63.14
2023-04-03T18:19:30.071Z,58.43
2023-04-03T18:22:37.954Z,54.84
2023-04-03T18:25:44.097Z,57.77
2023-04-03T18:29:00.419Z,64.25
2023-04-03T18:32:10.322Z,68.63
2023-04-03T18:35:20.298Z,66.90
2023-04-03T18:38:26.552Z,71.15
2023-04-03T18:41:39.890Z,73.60
2023-04-03T18:44:51.463Z,78.83
2023-04-03T18:48:00.313Z,87.81
2023-04-03T18:51:09.266Z,80.43
2023-04-03T18:54:16.658Z,85.47
2023-04-03T18:57:22.813Z,85.86
2023-04-03T19:00:29.720Z,90.52
2023-04-03T19:03:39.889Z,94.95
2023-04-03T19:06:49.834Z,96.34
2023-04-03T19:09:56.202Z,91.84
2023-04-03T19:13:03.686Z,81.89
2023-04-03T19:16:10.753Z,81.96
2023-04-03T19:19:18.081Z,83.20
2023-04-03T19:22:27.206Z,82.52
2023-04-03T19:25:34.306Z,84.88
2023-04-03T19:28:42.098Z,79.42
2023-04-03T19:31:49.190Z,81.00
2023-04-03T19:34:55.856Z,84.62
2023-04-03T19:38:05.350Z,81.65
2023-04-03T19:41:18.174Z,86.13
2023-04-03T19:44:25.504Z,81.83
2023-04-03T19:47:32.416Z,85.80
2023-04-03T19:50:39.629Z,85.13
2023-04-03T19:53:49.115Z,77.98
2023-04-03T19:56:59.171Z,74.49
2023-04-03T20:00:05.444Z,80.64
2023-04-03T20:03:18.621Z,81.41
2023-04-03T20:06:24.755Z,83.67
2023-04-03T20:09:35.026Z,84.43
2023-04-03T20:12:41.442Z,86.07
2023-04-03T20:15:48.606Z,82.88
2023-04-03T20:18:56.576Z,81.64
2023-04-03T20:22:07.512Z,81.33
2023-04-03T20:25:23.664Z,83.87
2023-04-03T20:28:44.328Z,79.77
2023-04-03T20:31:50.518Z,84.85
2023-04-03T20:35:04.203Z,82.65
2023-04-03T20:38:10.962Z,79.00
2023-04-03T20:41:20.622Z,84.16
2023-04-03T20:44:26.767Z,86.97
2023-04-03T20:47:33.743Z,93.15
2023-04-03T20:50:40.024Z,92.59
2023-04-03T20:53:47.856Z,94.53
2023-04-03T20:56:56.520Z,90.33
2023-04-03T21:00:04.958Z,84.95
2023-04-03T21:03:11.175Z,83.29
2023-04-03T21:07:02.959Z,83.39
2023-04-03T21:10:54.445Z,83.01
2023-04-03T21:14:46.790Z,78.77
2023-04-03T21:18:28.570Z,80.93
2023-04-03T21:21:37.644Z,78.44
2023-04-03T21:24:44.001Z,95.82
2023-04-03T21:27:52.056Z,85.20
2023-04-03T21:30:58.187Z,79.32
2023-04-03T21:34:07.814Z,75.48
2023-04-03T21:37:14.729Z,72.92
2023-04-03T21:40:22.011Z,72.56
2023-04-03T21:43:28.364Z,71.85
2023-04-03T21:46:36.329Z,76.32
2023-04-03T21:49:45.087Z,76.05
2023-04-03T21:52:52.061Z,75.69
2023-04-03T21:56:00.540Z,77.81
2023-04-03T21:59:07.994Z,77.99
2023-04-03T22:02:14.179Z,81.17
2023-04-03T22:05:23.692Z,80.91
2023-04-03T22:08:29.820Z,81.49
2023-04-03T22:11:40.557Z,86.25
2023-04-03T22:14:46.607Z,88.50
2023-04-03T22:17:56.321Z,91.05
2023-04-03T22:21:05.175Z,86.12
2023-04-03T22:24:12.689Z,88.17
2023-04-03T22:27:18.752Z,88.00
2023-04-03T22:30:26.200Z,83.31
2023-04-03T22:33:32.338Z,83.67
2023-04-03T22:36:43.397Z,91.08
2023-04-03T22:39:49.463Z,86.70
2023-04-03T22:43:09.027Z,83.34
2023-04-03T22:46:15.178Z,84.99
2023-04-03T22:49:22.103Z,84.82
2023-04-03T22:52:44.027Z,81.79
2023-04-03T22:55:58.953Z,84.21
2023-04-03T22:59:13.354Z,86.41
2023-04-03T23:02:20.477Z,83.60
2023-04-03T23:05:26.483Z,90.36
2023-04-03T23:08:38.228Z,88.04
2023-04-03T23:11:44.197Z,82.51
2023-04-03T23:14:51.076Z,84.95
2023-04-03T23:18:03.184Z,84.40
2023-04-03T23:21:10.942Z,82.92
2023-04-03T23:24:20.518Z,86.29
2023-04-03T23:27:27.461Z,87.36
2023-04-03T23:30:34.059Z,85.33
2023-04-03T23:33:44.211Z,82.19
2023-04-03T23:36:50.279Z,84.20
2023-04-03T23:40:01.693Z,77.46
2023-04-03T23:43:07.818Z,83.30
2023-04-03T23:46:14.704Z,80.25
2023-04-03T23:49:20.979Z,81.51
2023-04-03T23:52:27.824Z,79.25
2023-04-03T23:55:36.537Z,79.70
2023-04-03T23:58:43.526Z,76.04
